Kingstown, North Carolina
Current Conditions -  °F | °C
As of 9:55 PM on Friday 21 Nov 2014 (Local Time) from KEHO Reporting Station
Light Snow Light Snow  
Wind Chill: 40°   Ceiling: 200
Heat Index: 40°   Visibility: 0.25mi
Dew Point: 16°   Wind: 0mph
Humidity: 38%   Direction: NA
Pressure: 30.48"   Gusts: NA
Location:  35.3693°N, 81.5992°W
Report Text: KEHO 220255Z AUTO 00000KT 1/4SM -SN VV002 04/M09 A3048 RMK AO2 T00421089
Loading
Personal Weather Stations






























Interactive Weather Map New forecast layout! Learn more

10-Day Weather Forecast

Advertisements
Track Severe Weather on mobile